createdAt,value
2019-06-08T00:01:02.482Z,84.97
2019-06-08T00:03:30.934Z,85.35
2019-06-08T00:05:59.437Z,85.14
2019-06-08T00:08:27.899Z,84.37
2019-06-08T00:10:56.342Z,84.09
2019-06-08T00:13:24.768Z,83.31
2019-06-08T00:15:53.204Z,82.83
2019-06-08T00:18:21.632Z,83.49
2019-06-08T00:20:50.065Z,82.99
2019-06-08T00:23:19.979Z,83.55
2019-06-08T00:25:48.736Z,83.34
2019-06-08T00:28:18.839Z,84.82
2019-06-08T00:30:46.525Z,85.59
2019-06-08T00:33:14.354Z,85.35
2019-06-08T00:35:42.065Z,85.59
2019-06-08T00:38:10.491Z,85.64
2019-06-08T00:40:38.970Z,85.76
2019-06-08T00:43:07.420Z,85.29
2019-06-08T00:45:35.840Z,84.98
2019-06-08T00:48:04.261Z,84.13
2019-06-08T00:50:32.681Z,83.38
2019-06-08T00:53:00.316Z,82.67
2019-06-08T00:55:29.881Z,82.38
2019-06-08T00:57:58.430Z,82.98
2019-06-08T01:00:26.757Z,80.80
2019-06-08T01:02:55.357Z,81.11
2019-06-08T01:05:23.972Z,79.90
2019-06-08T01:07:52.472Z,79.00
2019-06-08T01:10:21.321Z,79.22
2019-06-08T01:12:49.859Z,78.64
2019-06-08T01:15:37.597Z,77.61
2019-06-08T01:18:06.092Z,76.91
2019-06-08T01:20:53.846Z,76.64
2019-06-08T01:23:23.419Z,76.86
2019-06-08T01:25:52.040Z,76.61
2019-06-08T01:28:20.439Z,76.54
2019-06-08T01:30:48.858Z,77.00
2019-06-08T01:33:17.285Z,76.07
2019-06-08T01:35:45.707Z,75.55
2019-06-08T01:38:13.330Z,74.96
2019-06-08T01:40:40.969Z,75.09
2019-06-08T01:43:09.395Z,75.31
2019-06-08T01:45:37.805Z,74.73
2019-06-08T01:48:19.308Z,74.78
2019-06-08T01:50:36.772Z,74.95
2019-06-08T01:53:05.558Z,74.52
2019-06-08T01:55:34.427Z,73.76
2019-06-08T01:58:03.034Z,74.73
2019-06-08T02:00:37.921Z,74.59
2019-06-08T02:03:01.937Z,74.61
2019-06-08T02:05:30.370Z,75.60
2019-06-08T02:07:59.122Z,75.58
2019-06-08T02:10:28.835Z,75.70
2019-06-08T02:12:57.413Z,77.13
2019-06-08T02:15:45.161Z,76.48
2019-06-08T02:18:13.934Z,75.91
2019-06-08T02:20:42.332Z,75.68
2019-06-08T02:23:10.777Z,75.78
2019-06-08T02:25:39.682Z,75.94
2019-06-08T02:28:08.185Z,76.22
2019-06-08T02:30:39.082Z,76.25
2019-06-08T02:33:06.742Z,76.59
2019-06-08T02:35:35.989Z,76.63
2019-06-08T02:38:05.352Z,77.71
2019-06-08T02:40:35.123Z,79.38
2019-06-08T02:43:04.233Z,81.26
2019-06-08T02:45:34.103Z,82.84
2019-06-08T02:48:02.828Z,84.47
2019-06-08T02:50:54.726Z,84.73
2019-06-08T02:53:23.102Z,84.75
2019-06-08T02:55:50.861Z,85.97
2019-06-08T02:58:18.579Z,85.63
2019-06-08T03:00:46.281Z,85.50
2019-06-08T03:03:14.004Z,85.97
2019-06-08T03:06:00.958Z,84.18
2019-06-08T03:08:28.601Z,84.50
2019-06-08T03:10:56.235Z,85.07
2019-06-08T03:13:24.778Z,84.76
2019-06-08T03:15:52.728Z,84.31
2019-06-08T03:18:20.361Z,84.33
2019-06-08T03:20:48.883Z,83.95
2019-06-08T03:23:17.555Z,83.58
2019-06-08T03:25:52.888Z,82.95
2019-06-08T03:28:16.196Z,82.99
2019-06-08T03:30:53.298Z,82.56
2019-06-08T03:33:15.017Z,81.70
2019-06-08T03:35:52.640Z,81.80
2019-06-08T03:38:13.637Z,80.66
2019-06-08T03:40:43.406Z,81.55
2019-06-08T03:43:11.453Z,80.86
2019-06-08T03:45:40.790Z,82.25
2019-06-08T03:48:09.807Z,83.76
2019-06-08T03:50:40.250Z,83.42
2019-06-08T03:53:08.374Z,82.12
2019-06-08T03:55:38.012Z,80.77
2019-06-08T03:58:07.077Z,81.22
2019-06-08T04:00:36.379Z,81.51
2019-06-08T04:03:05.291Z,80.39
2019-06-08T04:05:33.719Z,80.27
2019-06-08T04:08:02.139Z,80.02
2019-06-08T04:10:30.534Z,80.04
2019-06-08T04:12:58.965Z,79.09
2019-06-08T04:15:27.371Z,79.58
2019-06-08T04:17:55.765Z,79.77
2019-06-08T04:20:24.173Z,79.34
2019-06-08T04:22:52.590Z,79.50
2019-06-08T04:25:21.009Z,79.27
2019-06-08T04:27:48.630Z,81.33
2019-06-08T04:30:17.887Z,81.89
2019-06-08T04:32:47.529Z,81.54
2019-06-08T04:35:16.456Z,81.13
2019-06-08T04:37:46.753Z,80.59
2019-06-08T04:40:15.015Z,79.94
2019-06-08T04:43:02.788Z,80.24
2019-06-08T04:45:31.247Z,79.55
2019-06-08T04:47:59.739Z,80.47
2019-06-08T04:50:27.353Z,79.68
2019-06-08T04:52:55.138Z,80.02
2019-06-08T04:55:22.752Z,80.47
2019-06-08T04:57:50.913Z,80.24
2019-06-08T05:00:18.856Z,80.71
2019-06-08T05:02:48.885Z,80.63
2019-06-08T05:05:16.619Z,80.73
2019-06-08T05:07:46.023Z,80.68
2019-06-08T05:10:15.207Z,80.09
2019-06-08T05:12:45.412Z,80.81
2019-06-08T05:15:13.768Z,80.07
2019-06-08T05:17:43.287Z,79.78
2019-06-08T05:20:11.894Z,79.77
2019-06-08T05:22:41.472Z,79.95
2019-06-08T05:25:10.085Z,79.51
2019-06-08T05:27:39.384Z,79.34
2019-06-08T05:30:08.840Z,79.95
2019-06-08T05:32:37.606Z,79.59
2019-06-08T05:35:06.077Z,79.63
2019-06-08T05:37:34.480Z,79.76
2019-06-08T05:40:02.875Z,80.38
2019-06-08T05:42:31.300Z,80.40
2019-06-08T05:44:59.784Z,80.15
2019-06-08T05:47:28.779Z,79.48
2019-06-08T05:49:57.205Z,79.74
2019-06-08T05:52:25.708Z,79.67
2019-06-08T05:54:54.184Z,79.30
2019-06-08T05:57:22.598Z,79.22
2019-06-08T05:59:51.063Z,79.29
2019-06-08T06:02:19.509Z,79.27
2019-06-08T06:04:51.607Z,78.76
2019-06-08T06:07:18.147Z,79.23
2019-06-08T06:09:46.966Z,79.71
2019-06-08T06:12:15.567Z,79.94
2019-06-08T06:14:44.980Z,79.45
2019-06-08T06:17:13.476Z,79.99
2019-06-08T06:19:42.981Z,79.87
2019-06-08T06:22:11.817Z,79.82
2019-06-08T06:24:39.471Z,80.66
2019-06-08T06:27:07.130Z,80.03
2019-06-08T06:29:35.556Z,80.20
2019-06-08T06:32:04.065Z,79.94
2019-06-08T06:34:32.462Z,79.36
2019-06-08T06:37:00.882Z,79.06
2019-06-08T06:39:29.326Z,79.41
2019-06-08T06:41:57.739Z,79.13
2019-06-08T06:44:26.165Z,79.19
2019-06-08T06:46:54.602Z,79.16
2019-06-08T06:49:23.010Z,79.94
2019-06-08T06:51:52.741Z,79.61
2019-06-08T06:54:21.470Z,79.67
2019-06-08T06:56:49.865Z,79.07
2019-06-08T06:59:18.280Z,78.65
2019-06-08T07:01:47.518Z,77.93
2019-06-08T07:04:16.402Z,77.34
2019-06-08T07:06:46.124Z,78.01
2019-06-08T07:09:34.053Z,77.22
2019-06-08T07:12:02.473Z,77.21
2019-06-08T07:14:30.973Z,78.34
2019-06-08T07:16:59.415Z,80.29
2019-06-08T07:19:28.098Z,82.31
2019-06-08T07:21:56.491Z,82.00
2019-06-08T07:24:24.909Z,82.09
2019-06-08T07:26:54.464Z,81.76
2019-06-08T07:29:23.216Z,80.70
2019-06-08T07:31:52.020Z,80.32
2019-06-08T07:34:41.301Z,79.32
2019-06-08T07:37:10.144Z,78.82
2019-06-08T07:39:38.611Z,77.62
2019-06-08T07:42:26.655Z,77.53
2019-06-08T07:44:55.224Z,76.86
2019-06-08T07:47:23.675Z,78.18
2019-06-08T07:49:53.238Z,78.05
2019-06-08T07:52:41.049Z,77.56
2019-06-08T07:55:09.465Z,77.79
2019-06-08T07:57:37.886Z,77.47
2019-06-08T08:00:09.372Z,78.38
2019-06-08T08:02:37.118Z,77.77
2019-06-08T08:05:05.945Z,76.30
2019-06-08T08:07:34.362Z,75.46
2019-06-08T08:10:02.902Z,75.33
2019-06-08T08:12:31.501Z,76.43
2019-06-08T08:14:59.921Z,76.05
2019-06-08T08:17:28.332Z,76.27
2019-06-08T08:19:57.408Z,75.83
2019-06-08T08:22:29.294Z,77.15
2019-06-08T08:25:01.320Z,78.08
2019-06-08T08:27:28.074Z,79.43
2019-06-08T08:29:58.635Z,79.58
2019-06-08T08:32:29.502Z,80.40
2019-06-08T08:34:59.211Z,81.74
2019-06-08T08:37:28.445Z,81.18
2019-06-08T08:39:59.665Z,82.80
2019-06-08T08:42:27.074Z,82.79
2019-06-08T08:45:02.658Z,83.72
2019-06-08T08:47:48.511Z,82.99
2019-06-08T08:50:18.408Z,82.60
2019-06-08T08:52:47.694Z,81.97
2019-06-08T08:55:20.197Z,81.31
2019-06-08T08:57:48.723Z,81.49
2019-06-08T09:00:18.101Z,82.41
2019-06-08T09:02:50.208Z,82.63
2019-06-08T09:05:18.162Z,81.85
2019-06-08T09:07:48.247Z,82.20
2019-06-08T09:10:18.341Z,82.31
2019-06-08T09:12:48.530Z,82.52
2019-06-08T09:15:19.235Z,81.93
2019-06-08T09:18:08.115Z,83.08
2019-06-08T09:20:38.049Z,82.58
2019-06-08T09:23:15.759Z,83.57
2019-06-08T09:25:37.446Z,83.22
2019-06-08T09:28:08.406Z,83.76
2019-06-08T09:30:38.506Z,83.36
2019-06-08T09:33:08.003Z,83.41
2019-06-08T09:35:37.850Z,83.03
2019-06-08T09:38:08.568Z,82.43
2019-06-08T09:40:38.597Z,81.70
2019-06-08T09:43:12.329Z,80.17
2019-06-08T09:45:38.162Z,81.28
2019-06-08T09:48:09.303Z,84.64
2019-06-08T09:50:38.593Z,86.33
2019-06-08T09:53:23.275Z,88.39
2019-06-08T09:55:38.638Z,88.64
2019-06-08T09:58:11.225Z,89.42
2019-06-08T10:00:37.979Z,89.25
2019-06-08T10:03:09.270Z,88.09
2019-06-08T10:05:38.675Z,88.14
2019-06-08T10:08:09.287Z,86.41
2019-06-08T10:10:36.953Z,84.50
2019-06-08T10:13:09.220Z,83.41
2019-06-08T10:15:35.833Z,81.12
2019-06-08T10:18:05.030Z,81.27
2019-06-08T10:20:33.679Z,79.60
2019-06-08T10:23:05.105Z,77.52
2019-06-08T10:25:32.642Z,79.35
2019-06-08T10:28:09.855Z,77.39
2019-06-08T10:30:31.275Z,72.24
2019-06-08T10:33:03.062Z,74.30
2019-06-08T10:35:30.151Z,73.12
2019-06-08T10:38:02.727Z,72.11
2019-06-08T10:40:28.853Z,72.16
2019-06-08T10:42:59.796Z,69.60
2019-06-08T10:45:28.618Z,69.14
2019-06-08T10:47:59.392Z,68.42
2019-06-08T10:50:28.813Z,69.00
2019-06-08T10:53:01.257Z,69.70
2019-06-08T10:55:28.063Z,69.24
2019-06-08T10:57:58.014Z,68.83
2019-06-08T11:00:28.132Z,68.26
2019-06-08T11:02:58.979Z,69.46
2019-06-08T11:05:28.057Z,69.44
2019-06-08T11:07:58.883Z,66.44
2019-06-08T11:10:26.817Z,64.06
2019-06-08T11:12:58.276Z,63.61
2019-06-08T11:15:29.368Z,65.92
2019-06-08T11:17:59.932Z,68.12
2019-06-08T11:20:27.557Z,67.37
2019-06-08T11:22:58.342Z,68.17
2019-06-08T11:25:28.019Z,69.74
2019-06-08T11:27:58.308Z,72.06
2019-06-08T11:30:30.234Z,73.29
2019-06-08T11:32:57.728Z,72.47
2019-06-08T11:35:28.496Z,73.33
2019-06-08T11:37:58.492Z,72.56
2019-06-08T11:40:27.841Z,71.37
2019-06-08T11:42:58.462Z,71.54
2019-06-08T11:45:26.593Z,72.09
2019-06-08T11:47:55.013Z,70.69
2019-06-08T11:50:39.057Z,72.97
2019-06-08T11:53:10.586Z,72.94
2019-06-08T11:55:38.499Z,72.82
2019-06-08T11:58:09.869Z,71.18
2019-06-08T12:01:00.750Z,72.52
2019-06-08T12:03:30.190Z,72.17
2019-06-08T12:06:18.608Z,74.01
2019-06-08T12:08:47.384Z,80.64
2019-06-08T12:11:20.713Z,84.34
2019-06-08T12:13:47.412Z,84.33
2019-06-08T12:16:21.400Z,82.05
2019-06-08T12:18:49.170Z,81.27
2019-06-08T12:21:18.536Z,77.50
2019-06-08T12:23:46.711Z,76.35
2019-06-08T12:26:15.138Z,75.20
2019-06-08T12:28:43.575Z,70.69
2019-06-08T12:31:16.900Z,72.31
2019-06-08T12:33:42.124Z,71.23
2019-06-08T12:36:13.630Z,66.69
2019-06-08T12:38:43.114Z,68.60
2019-06-08T12:41:31.515Z,65.89
2019-06-08T12:44:00.161Z,65.71
2019-06-08T12:46:28.593Z,62.49
2019-06-08T12:48:58.274Z,63.42
2019-06-08T12:51:28.144Z,66.19
2019-06-08T12:53:59.995Z,62.94
2019-06-08T12:56:28.781Z,64.51
2019-06-08T12:58:57.917Z,61.07
2019-06-08T13:01:48.241Z,61.83
2019-06-08T13:04:21.361Z,63.26
2019-06-08T13:06:48.240Z,61.20
2019-06-08T13:09:18.885Z,59.58
2019-06-08T13:11:50.412Z,58.49
2019-06-08T13:14:19.017Z,59.60
2019-06-08T13:16:48.648Z,62.10
2019-06-08T13:19:38.426Z,58.85
2019-06-08T13:22:06.348Z,58.06
2019-06-08T13:24:34.786Z,55.88
2019-06-08T13:27:03.201Z,57.42
2019-06-08T13:29:31.604Z,56.72
2019-06-08T13:32:01.583Z,55.93
2019-06-08T13:34:30.109Z,56.81
2019-06-08T13:36:58.623Z,57.37
2019-06-08T13:39:28.006Z,57.92
2019-06-08T13:41:56.542Z,54.56
2019-06-08T13:44:27.532Z,54.76
2019-06-08T13:46:57.619Z,52.98
2019-06-08T13:49:29.610Z,53.28
2019-06-08T13:51:58.173Z,53.10
2019-06-08T13:54:30.869Z,52.28
2019-06-08T13:56:58.776Z,53.54
2019-06-08T13:59:30.313Z,51.14
2019-06-08T14:01:57.959Z,50.81
2019-06-08T14:04:26.639Z,53.40
2019-06-08T14:06:55.045Z,51.45
2019-06-08T14:09:24.819Z,51.35
2019-06-08T14:11:53.451Z,52.98
2019-06-08T14:14:23.071Z,54.37
2019-06-08T14:16:52.027Z,54.44
2019-06-08T14:19:23.271Z,54.17
2019-06-08T14:21:50.578Z,55.70
2019-06-08T14:24:24.415Z,53.80
2019-06-08T14:26:49.173Z,54.32
2019-06-08T14:29:19.642Z,54.93
2019-06-08T14:31:47.742Z,55.44
2019-06-08T14:34:38.483Z,56.50
2019-06-08T14:37:08.486Z,53.86
2019-06-08T14:39:36.389Z,54.55
2019-06-08T14:42:04.805Z,55.37
2019-06-08T14:44:33.975Z,54.94
2019-06-08T14:47:13.812Z,52.54
2019-06-08T14:49:48.854Z,51.20
2019-06-08T14:52:19.355Z,51.14
2019-06-08T14:54:48.242Z,49.71
2019-06-08T14:57:17.854Z,51.61
2019-06-08T14:59:50.114Z,51.22
2019-06-08T15:02:17.762Z,50.19
2019-06-08T15:05:07.780Z,51.40
2019-06-08T15:07:38.694Z,49.93
2019-06-08T15:10:09.790Z,50.23
2019-06-08T15:12:38.425Z,52.11
2019-06-08T15:15:08.297Z,52.29
2019-06-08T15:17:37.974Z,51.22
2019-06-08T15:20:08.639Z,51.39
2019-06-08T15:22:38.938Z,50.19
2019-06-08T15:25:10.992Z,52.54
2019-06-08T15:27:38.893Z,52.08
2019-06-08T15:30:07.664Z,50.38
2019-06-08T15:32:38.559Z,50.70
2019-06-08T15:35:08.122Z,50.87
2019-06-08T15:37:38.093Z,50.26
2019-06-08T15:40:07.674Z,49.91
2019-06-08T15:42:36.809Z,49.94
2019-06-08T15:45:08.081Z,49.64
2019-06-08T15:47:35.933Z,50.05
2019-06-08T15:50:04.567Z,49.39
2019-06-08T15:52:34.205Z,49.49
2019-06-08T15:55:02.848Z,49.90
2019-06-08T15:57:35.679Z,51.08
2019-06-08T16:00:01.449Z,51.49
2019-06-08T16:02:29.869Z,49.58
2019-06-08T16:04:58.287Z,49.74
2019-06-08T16:07:28.590Z,50.05
2019-06-08T16:09:56.876Z,50.42
2019-06-08T16:12:26.196Z,50.26
2019-06-08T16:14:54.788Z,50.26
2019-06-08T16:17:23.480Z,50.26
2019-06-08T16:19:53.237Z,51.59
2019-06-08T16:22:41.153Z,51.45
2019-06-08T16:25:21.668Z,50.71
2019-06-08T16:27:50.104Z,50.89
2019-06-08T16:30:18.869Z,50.84
2019-06-08T16:32:47.289Z,51.52
2019-06-08T16:35:15.717Z,50.54
2019-06-08T16:37:44.416Z,51.37
2019-06-08T16:40:12.828Z,51.84
2019-06-08T16:42:41.240Z,51.79
2019-06-08T16:45:09.649Z,52.03
2019-06-08T16:47:39.669Z,50.83
2019-06-08T16:50:20.985Z,50.13
2019-06-08T16:52:38.718Z,50.44
2019-06-08T16:55:07.239Z,49.94
2019-06-08T16:57:38.272Z,50.73
2019-06-08T17:00:30.167Z,50.22
2019-06-08T17:02:37.181Z,51.88
2019-06-08T17:05:05.925Z,50.70
2019-06-08T17:07:35.475Z,51.29
2019-06-08T17:10:04.091Z,50.32
2019-06-08T17:12:32.854Z,50.64
2019-06-08T17:15:01.297Z,50.54
2019-06-08T17:17:30.096Z,51.53
2019-06-08T17:20:18.149Z,51.19
2019-06-08T17:22:46.586Z,51.90
2019-06-08T17:25:16.656Z,51.70
2019-06-08T17:27:45.096Z,52.73
2019-06-08T17:30:13.536Z,53.43
2019-06-08T17:32:42.293Z,53.81
2019-06-08T17:35:11.443Z,52.98
2019-06-08T17:37:40.116Z,51.66
2019-06-08T17:40:08.787Z,50.42
2019-06-08T17:42:37.620Z,51.40
2019-06-08T17:45:06.632Z,51.93
2019-06-08T17:47:36.271Z,53.28
2019-06-08T17:50:05.882Z,53.05
2019-06-08T17:52:36.918Z,52.79
2019-06-08T17:55:04.929Z,52.64
2019-06-08T17:57:47.156Z,52.68
2019-06-08T18:00:04.131Z,53.69
2019-06-08T18:02:33.472Z,54.44
2019-06-08T18:05:02.037Z,54.35
2019-06-08T18:07:30.512Z,54.12
2019-06-08T18:09:58.948Z,54.77
2019-06-08T18:12:27.386Z,55.60
2019-06-08T18:14:57.911Z,55.86
2019-06-08T18:17:27.846Z,55.39
2019-06-08T18:19:57.946Z,56.18
2019-06-08T18:22:27.215Z,55.70
2019-06-08T18:24:58.101Z,55.37
2019-06-08T18:27:27.827Z,56.25
2019-06-08T18:29:58.100Z,57.43
2019-06-08T18:32:46.365Z,57.43
2019-06-08T18:35:18.053Z,58.02
2019-06-08T18:37:48.512Z,58.21
2019-06-08T18:40:17.935Z,57.81
2019-06-08T18:42:48.724Z,56.50
2019-06-08T18:45:18.186Z,57.64
2019-06-08T18:47:48.380Z,57.64
2019-06-08T18:50:17.440Z,57.17
2019-06-08T18:52:47.160Z,58.07
2019-06-08T18:55:18.254Z,58.51
2019-06-08T18:57:48.482Z,59.50
2019-06-08T19:00:16.680Z,60.01
2019-06-08T19:02:48.890Z,59.88
2019-06-08T19:05:17.688Z,61.30
2019-06-08T19:07:48.071Z,61.81
2019-06-08T19:10:29.913Z,61.13
2019-06-08T19:12:58.667Z,61.52
2019-06-08T19:15:32.525Z,62.55
2019-06-08T19:18:00.944Z,62.69
2019-06-08T19:20:29.389Z,63.32
2019-06-08T19:22:58.462Z,63.42
2019-06-08T19:25:27.560Z,63.46
2019-06-08T19:27:57.926Z,63.61
2019-06-08T19:30:28.182Z,64.06
2019-06-08T19:32:57.857Z,64.55
2019-06-08T19:35:27.367Z,64.51
2019-06-08T19:37:58.171Z,65.22
2019-06-08T19:40:27.182Z,65.05
2019-06-08T19:43:00.488Z,65.02
2019-06-08T19:45:27.694Z,65.09
2019-06-08T19:47:57.802Z,64.09
2019-06-08T19:50:28.628Z,64.22
2019-06-08T19:52:58.075Z,64.06
2019-06-08T19:55:26.729Z,63.93
2019-06-08T19:57:57.019Z,64.00
2019-06-08T20:00:27.503Z,64.38
2019-06-08T20:02:58.047Z,64.75
2019-06-08T20:05:27.921Z,65.37
2019-06-08T20:07:57.443Z,65.38
2019-06-08T20:10:27.945Z,65.39
2019-06-08T20:12:57.789Z,65.62
2019-06-08T20:15:26.690Z,65.38
2019-06-08T20:17:57.288Z,65.90
2019-06-08T20:20:27.680Z,65.50
2019-06-08T20:22:55.397Z,65.70
2019-06-08T20:25:43.196Z,66.32
2019-06-08T20:28:11.654Z,65.79
2019-06-08T20:30:40.065Z,66.40
2019-06-08T20:33:08.492Z,66.40
2019-06-08T20:35:37.526Z,66.84
2019-06-08T20:38:08.239Z,67.28
2019-06-08T20:40:38.323Z,67.10
2019-06-08T20:43:07.142Z,66.32
2019-06-08T20:45:57.382Z,66.02
2019-06-08T20:48:37.793Z,66.24
2019-06-08T20:51:07.866Z,66.44
2019-06-08T20:53:38.761Z,66.69
2019-06-08T20:56:08.016Z,67.23
2019-06-08T20:58:37.165Z,67.39
2019-06-08T21:01:07.365Z,67.64
2019-06-08T21:03:35.976Z,67.74
2019-06-08T21:06:04.401Z,68.15
2019-06-08T21:08:32.834Z,68.23
2019-06-08T21:11:01.265Z,68.98
2019-06-08T21:13:29.692Z,68.44
2019-06-08T21:16:00.649Z,68.57
2019-06-08T21:18:28.263Z,68.28
2019-06-08T21:20:58.053Z,68.89
2019-06-08T21:23:27.804Z,68.41
2019-06-08T21:25:59.974Z,68.71
2019-06-08T21:28:28.016Z,68.89
2019-06-08T21:31:01.216Z,69.82
2019-06-08T21:33:26.733Z,70.47
2019-06-08T21:36:00.304Z,69.88
2019-06-08T21:38:27.984Z,70.14
2019-06-08T21:40:59.939Z,70.88
2019-06-08T21:43:27.945Z,70.61
2019-06-08T21:45:57.041Z,70.84
2019-06-08T21:48:27.522Z,71.08
2019-06-08T21:51:01.135Z,71.50
2019-06-08T21:53:27.552Z,71.37
2019-06-08T21:55:56.347Z,72.22
2019-06-08T21:58:24.983Z,72.06
2019-06-08T22:00:54.637Z,72.07
2019-06-08T22:03:23.305Z,72.06
2019-06-08T22:05:51.777Z,72.60
2019-06-08T22:08:20.206Z,72.67
2019-06-08T22:10:48.632Z,72.87
2019-06-08T22:13:17.558Z,73.15
2019-06-08T22:15:47.469Z,72.82
2019-06-08T22:18:18.314Z,72.60
2019-06-08T22:20:47.857Z,73.40
2019-06-08T22:23:18.056Z,73.96
2019-06-08T22:25:47.757Z,73.93
2019-06-08T22:28:17.736Z,73.93
2019-06-08T22:30:48.222Z,74.17
2019-06-08T22:33:17.607Z,73.68
2019-06-08T22:35:47.816Z,73.79
2019-06-08T22:38:17.724Z,73.78
2019-06-08T22:40:47.842Z,73.61
2019-06-08T22:43:18.992Z,73.90
2019-06-08T22:45:48.145Z,74.04
2019-06-08T22:48:18.831Z,73.03
2019-06-08T22:50:47.709Z,73.45
2019-06-08T22:53:16.409Z,73.19
2019-06-08T22:55:44.841Z,72.91
2019-06-08T22:58:13.272Z,73.16
2019-06-08T23:00:52.211Z,73.33
2019-06-08T23:03:11.846Z,74.56
2019-06-08T23:05:40.288Z,74.68
2019-06-08T23:08:09.483Z,74.02
2019-06-08T23:10:38.132Z,74.91
2019-06-08T23:13:08.602Z,74.81
2019-06-08T23:15:37.113Z,75.19
2019-06-08T23:18:06.777Z,74.39
2019-06-08T23:20:37.025Z,75.46
2019-06-08T23:23:08.557Z,75.36
2019-06-08T23:25:37.308Z,75.62
2019-06-08T23:28:08.174Z,76.42
2019-06-08T23:30:38.062Z,75.71
2019-06-08T23:33:10.432Z,76.81
2019-06-08T23:35:56.691Z,76.91
2019-06-08T23:38:08.115Z,77.80
2019-06-08T23:40:37.860Z,78.27
2019-06-08T23:43:05.928Z,78.34
2019-06-08T23:45:34.503Z,78.23
2019-06-08T23:48:02.950Z,78.29
2019-06-08T23:50:31.410Z,79.88
2019-06-08T23:53:00.685Z,79.89
2019-06-08T23:55:29.233Z,80.11
2019-06-08T23:57:58.674Z,79.83
